Time;durP1;ratioP1;P1;durP2;ratioP2;P2;SDS_P1;SDS_P2;PMS_P1;PMS_P2;Temp;Humidity;BMP_temperature;BMP_pressure;BME280_temperature;BME280_humidity;BME280_pressure;Samples;Min_cycle;Max_cycle;Signal;HPM_P1;HPM_P2
2024/01/28 00:00:44;;;;;;;52.20;17.17;;;;;;;-144.74;100.00;63161.41;4956596;28;20107;-73
2024/01/28 00:03:10;;;;;;;51.78;16.65;;;;;;;-144.74;100.00;63161.41;4959552;28;20441;-73
2024/01/28 00:05:36;;;;;;;65.88;16.63;;;;;;;-144.74;100.00;63161.41;4970595;28;20130;-73
2024/01/28 00:08:04;;;;;;;57.05;19.33;;;;;;;-144.74;100.00;63161.41;4971826;28;20074;-73
2024/01/28 00:10:29;;;;;;;62.13;15.93;;;;;;;-144.74;100.00;63161.41;4956029;28;20050;-73
2024/01/28 00:12:56;;;;;;;48.45;15.93;;;;;;;-144.74;100.00;63161.41;4953541;28;20026;-73
2024/01/28 00:15:21;;;;;;;55.47;16.75;;;;;;;-144.74;100.00;63161.41;4953377;28;20047;-73
2024/01/28 00:17:46;;;;;;;61.05;16.45;;;;;;;-144.74;100.00;63161.41;4952926;28;20034;-73
2024/01/28 00:20:11;;;;;;;54.13;17.13;;;;;;;-144.74;100.00;63161.41;4956218;28;20039;-72
2024/01/28 00:22:37;;;;;;;62.22;17.45;;;;;;;-144.74;100.00;63161.41;4958994;28;20061;-73
2024/01/28 00:25:03;;;;;;;61.58;18.55;;;;;;;-144.74;100.00;63161.41;4955536;28;20050;-72
2024/01/28 00:27:31;;;;;;;52.58;16.05;;;;;;;-144.74;100.00;63161.41;4969558;28;20038;-73
2024/01/28 00:29:56;;;;;;;57.75;15.07;;;;;;;-144.74;100.00;63161.41;4955229;28;20042;-72
2024/01/28 00:32:22;;;;;;;58.90;17.30;;;;;;;-144.74;100.00;63161.41;4956112;28;20031;-72
2024/01/28 00:34:50;;;;;;;55.90;17.60;;;;;;;-144.74;100.00;63161.41;4980201;28;20045;-72
2024/01/28 00:37:15;;;;;;;74.03;17.98;;;;;;;-144.74;100.00;63161.41;4961529;28;20031;-73
2024/01/28 00:39:40;;;;;;;67.53;17.95;;;;;;;-144.74;100.00;63161.41;4958711;28;20027;-73
2024/01/28 00:42:06;;;;;;;72.70;19.13;;;;;;;-144.74;100.00;63161.41;4963297;28;20033;-73
2024/01/28 00:44:31;;;;;;;62.75;18.85;;;;;;;-144.74;100.00;63161.41;4964860;28;20031;-73
2024/01/28 00:46:57;;;;;;;54.45;16.30;;;;;;;-144.74;100.00;63161.41;4955092;28;20036;-73
2024/01/28 00:49:31;;;;;;;66.82;18.55;;;;;;;-144.74;100.00;63161.41;4955584;28;20026;-72
2024/01/28 00:51:57;;;;;;;57.50;17.38;;;;;;;-144.74;100.00;63161.41;4954525;28;20030;-72
2024/01/28 00:54:26;;;;;;;58.38;16.95;;;;;;;-144.74;100.00;63161.41;4955242;28;20046;-72
2024/01/28 00:56:52;;;;;;;59.25;19.85;;;;;;;-144.74;100.00;63161.41;4955332;28;20019;-73
2024/01/28 00:59:19;;;;;;;64.85;17.77;;;;;;;-144.74;100.00;63161.41;4972844;28;20018;-73
2024/01/28 01:01:44;;;;;;;62.88;18.30;;;;;;;-144.74;100.00;63161.41;4953966;28;20022;-72
2024/01/28 01:04:10;;;;;;;66.03;17.80;;;;;;;-144.74;100.00;63161.41;4954963;28;20027;-72
2024/01/28 01:06:37;;;;;;;74.82;19.65;;;;;;;-144.74;100.00;63161.41;4955485;28;20034;-73
2024/01/28 01:09:09;;;;;;;68.93;19.60;;;;;;;-144.74;100.00;63161.41;4955691;28;20015;-73
2024/01/28 01:11:34;;;;;;;49.75;18.80;;;;;;;-144.74;100.00;63161.41;4954840;28;20064;-72
2024/01/28 01:14:03;;;;;;;60.05;17.98;;;;;;;-144.74;100.00;63161.41;4970939;28;20084;-73
2024/01/28 01:16:29;;;;;;;66.70;18.65;;;;;;;-144.74;100.00;63161.41;4970711;28;20050;-72
2024/01/28 01:18:54;;;;;;;55.40;17.00;;;;;;;-144.74;100.00;63161.41;4955232;28;20474;-72
2024/01/28 01:21:19;;;;;;;64.45;20.17;;;;;;;-144.74;100.00;63161.41;4951804;28;20031;-73
2024/01/28 01:23:45;;;;;;;67.50;19.50;;;;;;;-144.74;100.00;63161.41;4950768;28;20027;-72
2024/01/28 01:26:10;;;;;;;69.72;21.13;;;;;;;-144.74;100.00;63161.41;4954786;28;20023;-73
2024/01/28 01:28:36;;;;;;;67.40;18.75;;;;;;;-144.74;100.00;63161.41;4954414;28;20022;-74
2024/01/28 01:31:02;;;;;;;66.25;19.33;;;;;;;-144.74;100.00;63161.41;4953642;28;20023;-72
2024/01/28 01:33:28;;;;;;;72.35;20.80;;;;;;;-144.74;100.00;63161.41;4955134;28;20027;-72
2024/01/28 01:35:53;;;;;;;77.18;23.10;;;;;;;-144.74;100.00;63161.41;4952365;28;20035;-72
2024/01/28 01:38:19;;;;;;;63.83;18.80;;;;;;;-144.74;100.00;63161.41;4955115;28;20029;-73
2024/01/28 01:40:44;;;;;;;59.75;19.88;;;;;;;-144.74;100.00;63161.41;4954686;28;20049;-73
2024/01/28 01:43:10;;;;;;;66.75;21.38;;;;;;;-144.74;100.00;63161.41;4954324;28;20077;-73
2024/01/28 01:45:40;;;;;;;67.45;20.17;;;;;;;-144.74;100.00;63161.41;4953592;28;20027;-72
2024/01/28 01:48:12;;;;;;;71.00;21.63;;;;;;;-144.74;100.00;63161.41;4953341;28;20027;-72
2024/01/28 01:50:43;;;;;;;61.08;21.75;;;;;;;-144.74;100.00;63161.41;4951274;28;20486;-72
2024/01/28 01:53:15;;;;;;;65.07;18.75;;;;;;;-144.74;100.00;63161.41;4951810;28;20069;-73
2024/01/28 01:55:44;;;;;;;53.85;18.92;;;;;;;-144.74;100.00;63161.41;4951110;28;20039;-73
2024/01/28 01:58:10;;;;;;;65.15;18.15;;;;;;;-144.74;100.00;63161.41;4969693;28;20022;-73
2024/01/28 02:00:37;;;;;;;55.58;19.90;;;;;;;-144.74;100.00;63161.41;4971537;28;20038;-73
2024/01/28 02:03:03;;;;;;;69.15;20.30;;;;;;;-144.74;100.00;63161.41;4953510;28;20058;-72
2024/01/28 02:05:29;;;;;;;68.75;21.27;;;;;;;-144.74;100.00;63161.41;4955717;28;20113;-72
2024/01/28 02:07:54;;;;;;;57.22;17.23;;;;;;;-144.74;100.00;63161.41;4974944;28;20397;-72
2024/01/28 02:10:25;;;;;;;70.45;19.60;;;;;;;-144.74;100.00;63161.41;4954688;28;20125;-73
2024/01/28 02:12:53;;;;;;;58.50;20.05;;;;;;;-144.74;100.00;63161.41;4962744;28;20151;-74
2024/01/28 02:15:19;;;;;;;75.82;19.83;;;;;;;-144.74;100.00;63161.41;4947774;28;20045;-72
2024/01/28 02:17:44;;;;;;;70.82;20.73;;;;;;;-144.74;100.00;63161.41;4954514;28;20021;-73
2024/01/28 02:20:10;;;;;;;64.63;19.27;;;;;;;-144.74;100.00;63161.41;4951065;28;20031;-73
2024/01/28 02:22:36;;;;;;;74.68;20.55;;;;;;;-144.74;100.00;63161.41;4971511;28;20031;-73
2024/01/28 02:25:03;;;;;;;61.63;19.75;;;;;;;-144.74;100.00;63161.41;4953372;28;20493;-73
2024/01/28 02:27:34;;;;;;;74.80;18.45;;;;;;;-144.74;100.00;63161.41;4954691;28;20042;-72
2024/01/28 02:29:59;;;;;;;66.88;20.80;;;;;;;-144.74;100.00;63161.41;4948728;28;20041;-73
2024/01/28 02:32:25;;;;;;;56.70;18.17;;;;;;;-144.74;100.00;63161.41;4953999;28;20030;-72
2024/01/28 02:34:50;;;;;;;70.00;20.77;;;;;;;-144.74;100.00;63161.41;4949300;28;20082;-73
2024/01/28 02:37:15;;;;;;;62.22;19.88;;;;;;;-144.74;100.00;63161.41;4956361;28;20058;-72
2024/01/28 02:39:41;;;;;;;72.30;21.67;;;;;;;-144.74;100.00;63161.41;4952532;28;20030;-72
2024/01/28 02:42:07;;;;;;;62.75;17.02;;;;;;;-144.74;100.00;63161.41;4954757;28;20071;-72
2024/01/28 02:44:32;;;;;;;73.57;18.75;;;;;;;-144.74;100.00;63161.41;4952278;28;20030;-72
2024/01/28 02:47:01;;;;;;;68.22;18.27;;;;;;;-144.74;100.00;63161.41;4953835;28;20114;-72
2024/01/28 02:49:27;;;;;;;62.80;17.75;;;;;;;-144.74;100.00;63161.41;4953400;28;20015;-72
2024/01/28 02:51:55;;;;;;;63.97;17.30;;;;;;;-144.74;100.00;63161.41;4954137;28;20019;-72
2024/01/28 02:54:22;;;;;;;70.90;18.63;;;;;;;-144.74;100.00;63161.41;4950474;28;20023;-72
2024/01/28 02:56:48;;;;;;;56.67;16.60;;;;;;;-144.74;100.00;63161.41;4953819;28;20053;-72
2024/01/28 02:59:13;;;;;;;60.60;14.98;;;;;;;-144.74;100.00;63161.41;4953642;28;20109;-72
2024/01/28 03:01:51;;;;;;;76.93;17.85;;;;;;;-144.74;100.00;63161.41;4953105;28;20032;-72
2024/01/28 03:04:16;;;;;;;58.25;15.57;;;;;;;-144.74;100.00;63161.41;4952794;28;20030;-72
2024/01/28 03:06:42;;;;;;;64.85;16.23;;;;;;;-144.74;100.00;63161.41;4955949;28;20030;-72
2024/01/28 03:09:08;;;;;;;63.28;16.42;;;;;;;-144.74;100.00;63161.41;4953633;28;20038;-73
2024/01/28 03:11:34;;;;;;;65.72;16.73;;;;;;;-144.74;100.00;63161.41;4973205;28;20035;-72
2024/01/28 03:13:59;;;;;;;62.67;14.93;;;;;;;-144.74;100.00;63161.41;4957507;28;20027;-72
2024/01/28 03:16:24;;;;;;;61.40;17.90;;;;;;;-144.74;100.00;63161.41;4955665;28;20118;-73
2024/01/28 03:18:50;;;;;;;67.82;16.30;;;;;;;-144.74;100.00;63161.41;4957496;28;20110;-72
2024/01/28 03:21:15;;;;;;;57.85;17.05;;;;;;;-144.74;100.00;63161.41;4945536;28;20049;-71
2024/01/28 03:23:43;;;;;;;60.97;16.38;;;;;;;-144.74;100.00;63161.41;4957196;28;20114;-73
2024/01/28 03:26:12;;;;;;;62.33;17.23;;;;;;;-144.74;100.00;63161.41;4954131;28;20542;-72
2024/01/28 03:28:38;;;;;;;47.00;13.75;;;;;;;-144.74;100.00;63161.41;4957021;28;20074;-72
2024/01/28 03:31:03;;;;;;;55.47;16.98;;;;;;;-144.74;100.00;63161.41;4956307;28;20043;-72
2024/01/28 03:33:32;;;;;;;57.53;15.68;;;;;;;-144.74;100.00;63161.41;4952520;28;20022;-72
2024/01/28 03:35:58;;;;;;;71.28;17.45;;;;;;;-144.74;100.00;63161.41;4957871;28;20101;-72
2024/01/28 03:38:23;;;;;;;51.03;15.75;;;;;;;-144.74;100.00;63161.41;4966625;28;20034;-72
2024/01/28 03:40:48;;;;;;;43.58;15.75;;;;;;;-144.74;100.00;63161.41;4964727;28;20038;-73
2024/01/28 03:43:14;;;;;;;49.22;15.52;;;;;;;-144.74;100.00;63161.41;4957345;28;20130;-73
2024/01/28 03:45:39;;;;;;;56.88;15.38;;;;;;;-144.74;100.00;63161.41;4955845;28;20046;-71
2024/01/28 03:48:05;;;;;;;45.13;14.38;;;;;;;-144.74;100.00;63161.41;4953857;28;20059;-72
2024/01/28 03:50:30;;;;;;;66.43;17.38;;;;;;;-144.74;100.00;63161.41;4956355;28;20508;-72
2024/01/28 03:52:56;;;;;;;59.70;16.42;;;;;;;-144.74;100.00;63161.41;4956565;28;20118;-72
2024/01/28 03:55:21;;;;;;;54.88;17.00;;;;;;;-144.74;100.00;63161.41;4956387;28;20027;-72
2024/01/28 03:57:47;;;;;;;47.92;15.90;;;;;;;-144.74;100.00;63161.41;4954021;28;20033;-72
2024/01/28 04:00:13;;;;;;;64.38;17.60;;;;;;;-144.74;100.00;63161.41;4953845;28;20057;-72
2024/01/28 04:02:39;;;;;;;78.15;20.92;;;;;;;-144.74;100.00;63161.41;4956795;28;20027;-72
2024/01/28 04:05:05;;;;;;;66.93;19.38;;;;;;;-144.74;100.00;63161.41;4953324;28;20035;-72
2024/01/28 04:07:30;;;;;;;82.05;20.10;;;;;;;-144.74;100.00;63161.41;4956891;28;20077;-71
2024/01/28 04:09:55;;;;;;;63.35;17.65;;;;;;;-144.74;100.00;63161.41;4970896;28;20129;-72
2024/01/28 04:12:22;;;;;;;79.93;19.85;;;;;;;-144.74;100.00;63161.41;4956490;28;20049;-72
2024/01/28 04:14:47;;;;;;;64.63;17.38;;;;;;;-144.74;100.00;63161.41;4955786;28;20038;-72
2024/01/28 04:17:12;;;;;;;66.43;18.42;;;;;;;-144.74;100.00;63161.41;4955645;28;20027;-72
2024/01/28 04:19:38;;;;;;;52.58;14.95;;;;;;;-144.74;100.00;63161.41;4955902;28;20496;-72
2024/01/28 04:22:03;;;;;;;54.78;14.05;;;;;;;-144.74;100.00;63161.41;4970754;28;20033;-72
2024/01/28 04:24:29;;;;;;;77.93;18.85;;;;;;;-144.74;100.00;63161.41;4953232;28;20043;-72
2024/01/28 04:26:55;;;;;;;72.38;18.63;;;;;;;-144.74;100.00;63161.41;4973844;28;20027;-71
2024/01/28 04:29:21;;;;;;;73.65;20.98;;;;;;;-144.74;100.00;63161.41;4953135;28;20046;-71
2024/01/28 04:31:46;;;;;;;76.25;20.38;;;;;;;-144.74;100.00;63161.41;4958446;28;20018;-71
2024/01/28 04:34:11;;;;;;;68.88;20.08;;;;;;;-144.74;100.00;63161.41;4955681;28;20031;-71
2024/01/28 04:36:37;;;;;;;81.65;19.10;;;;;;;-144.74;100.00;63161.41;4953147;28;20061;-72
2024/01/28 04:39:02;;;;;;;83.43;21.65;;;;;;;-144.74;100.00;63161.41;4953365;28;20030;-72
2024/01/28 04:41:28;;;;;;;81.25;20.90;;;;;;;-144.74;100.00;63161.41;4955343;28;20039;-72
2024/01/28 04:43:54;;;;;;;72.72;19.02;;;;;;;-144.74;100.00;63161.41;4950897;28;20042;-71
2024/01/28 04:46:20;;;;;;;77.70;21.30;;;;;;;-144.74;100.00;63161.41;4955396;28;20114;-72
2024/01/28 04:48:45;;;;;;;74.75;18.45;;;;;;;-144.74;100.00;63161.41;4954119;28;20449;-71
2024/01/28 04:51:11;;;;;;;76.20;20.73;;;;;;;-144.74;100.00;63161.41;4971045;28;20121;-71
2024/01/28 04:53:36;;;;;;;83.18;20.80;;;;;;;-144.74;100.00;63161.41;4973113;28;20061;-72
2024/01/28 04:56:02;;;;;;;59.53;18.08;;;;;;;-144.74;100.00;63161.41;4954477;28;20066;-71
2024/01/28 04:58:27;;;;;;;70.22;20.20;;;;;;;-144.74;100.00;63161.41;4956868;28;20022;-72
2024/01/28 05:00:54;;;;;;;75.25;21.67;;;;;;;-144.74;100.00;63161.41;4957580;28;20045;-72
2024/01/28 05:03:20;;;;;;;84.43;19.75;;;;;;;-144.74;100.00;63161.41;4972050;28;20030;-72
2024/01/28 05:05:45;;;;;;;69.47;19.38;;;;;;;-144.74;100.00;63161.41;4962003;28;20023;-72
2024/01/28 05:08:10;;;;;;;78.65;19.65;;;;;;;-144.74;100.00;63161.41;4967192;28;20045;-72
2024/01/28 05:10:36;;;;;;;76.57;20.10;;;;;;;-144.74;100.00;63161.41;4986233;28;20039;-72
2024/01/28 05:13:01;;;;;;;86.95;21.15;;;;;;;-144.74;100.00;63161.41;4960966;28;20026;-72
2024/01/28 05:15:27;;;;;;;85.85;21.20;;;;;;;-144.74;100.00;63161.41;4957679;28;20125;-72
2024/01/28 05:17:52;;;;;;;82.20;21.45;;;;;;;-144.74;100.00;63161.41;4952628;28;20058;-72
2024/01/28 05:20:18;;;;;;;72.75;20.90;;;;;;;-144.74;100.00;63161.41;4970745;28;20177;-72
2024/01/28 05:22:43;;;;;;;61.03;19.63;;;;;;;-144.74;100.00;63161.41;4953177;28;20041;-72
2024/01/28 05:25:09;;;;;;;72.47;19.75;;;;;;;-144.74;100.00;63161.41;4969512;28;20106;-72
2024/01/28 05:27:35;;;;;;;62.03;17.83;;;;;;;-144.74;100.00;63161.41;4952061;28;20019;-72
2024/01/28 05:30:01;;;;;;;69.95;19.40;;;;;;;-144.74;100.00;63161.41;4952468;28;20039;-72
2024/01/28 05:32:27;;;;;;;73.68;19.58;;;;;;;-144.74;100.00;63161.41;4954778;28;20038;-72
2024/01/28 05:34:52;;;;;;;74.45;20.83;;;;;;;-144.74;100.00;63161.41;4956960;28;20038;-72
2024/01/28 05:37:17;;;;;;;101.65;21.60;;;;;;;-144.74;100.00;63161.41;4952641;28;20038;-72
2024/01/28 05:39:44;;;;;;;71.85;21.77;;;;;;;-144.74;100.00;63161.41;4954680;28;20119;-72
2024/01/28 05:42:09;;;;;;;62.75;20.58;;;;;;;-144.74;100.00;63161.41;4969528;28;20461;-72
2024/01/28 05:44:34;;;;;;;67.22;21.30;;;;;;;-144.74;100.00;63161.41;4977409;28;20030;-72
2024/01/28 05:47:00;;;;;;;73.10;20.23;;;;;;;-144.74;100.00;63161.41;4966944;28;20443;-73
2024/01/28 05:49:25;;;;;;;76.43;18.70;;;;;;;-144.74;100.00;63161.41;4978143;28;20027;-72
2024/01/28 05:51:50;;;;;;;63.22;19.83;;;;;;;-144.74;100.00;63161.41;4963625;28;20127;-72
2024/01/28 05:54:16;;;;;;;71.55;18.27;;;;;;;-144.74;100.00;63161.41;4974208;28;20041;-72
2024/01/28 05:56:42;;;;;;;89.22;21.13;;;;;;;-144.74;100.00;63161.41;4952146;28;20089;-72
2024/01/28 05:59:07;;;;;;;72.32;19.02;;;;;;;-144.74;100.00;63161.41;4972214;28;20027;-72
2024/01/28 06:01:33;;;;;;;73.32;18.48;;;;;;;-144.74;100.00;63161.41;4951611;28;20027;-72
2024/01/28 06:03:58;;;;;;;72.82;19.45;;;;;;;-144.74;100.00;63161.41;4955108;28;20034;-72
2024/01/28 06:06:23;;;;;;;68.55;18.55;;;;;;;-144.74;100.00;63161.41;4954014;28;20046;-72
2024/01/28 06:08:49;;;;;;;68.65;19.15;;;;;;;-144.74;100.00;63161.41;4954540;28;20042;-72
2024/01/28 06:11:14;;;;;;;66.15;17.48;;;;;;;-144.74;100.00;63161.41;4954398;28;20105;-72
2024/01/28 06:13:40;;;;;;;65.18;16.95;;;;;;;-144.74;100.00;63161.41;4968484;28;20034;-72
2024/01/28 06:16:07;;;;;;;63.15;18.85;;;;;;;-144.74;100.00;63161.41;4950346;28;20122;-72
2024/01/28 06:18:32;;;;;;;56.33;14.88;;;;;;;-144.74;100.00;63161.41;4957761;28;20025;-72
2024/01/28 06:20:57;;;;;;;68.07;18.63;;;;;;;-144.74;100.00;63161.41;4959001;28;20038;-72
2024/01/28 06:23:22;;;;;;;69.30;18.75;;;;;;;-144.74;100.00;63161.41;4966606;28;20052;-72
2024/01/28 06:25:48;;;;;;;59.47;16.42;;;;;;;-144.74;100.00;63161.41;4951269;28;20050;-73
2024/01/28 06:28:14;;;;;;;74.07;17.23;;;;;;;-144.74;100.00;63161.41;4949212;28;20031;-72
2024/01/28 06:30:39;;;;;;;49.95;15.68;;;;;;;-144.74;100.00;63161.41;4953562;28;20537;-72
2024/01/28 06:33:05;;;;;;;65.53;15.95;;;;;;;-144.74;100.00;63161.41;4952156;28;20039;-72
2024/01/28 06:35:30;;;;;;;75.63;16.17;;;;;;;-144.74;100.00;63161.41;4974786;28;20067;-73
2024/01/28 06:37:56;;;;;;;65.60;15.63;;;;;;;-144.74;100.00;63161.41;4962804;28;20042;-72
2024/01/28 06:40:21;;;;;;;73.03;18.17;;;;;;;-144.74;100.00;63161.41;4961379;28;20030;-73
2024/01/28 06:42:47;;;;;;;60.45;16.35;;;;;;;-144.74;100.00;63161.41;4969657;28;20061;-73
2024/01/28 06:45:12;;;;;;;77.82;18.05;;;;;;;-144.74;100.00;63161.41;4977991;28;20050;-72
2024/01/28 06:47:38;;;;;;;80.57;18.65;;;;;;;-144.74;100.00;63161.41;4956317;28;20486;-72
2024/01/28 06:50:04;;;;;;;53.38;16.65;;;;;;;-144.74;100.00;63161.41;4969783;28;20043;-72
2024/01/28 06:52:29;;;;;;;63.70;15.80;;;;;;;-144.74;100.00;63161.41;4955172;28;20061;-72
2024/01/28 06:54:55;;;;;;;55.97;16.37;;;;;;;-144.74;100.00;63161.41;4957130;28;20078;-72
2024/01/28 06:57:20;;;;;;;70.70;15.40;;;;;;;-144.74;100.00;63161.41;4957837;28;20470;-73
2024/01/28 06:59:45;;;;;;;69.43;18.90;;;;;;;-144.74;100.00;63161.41;4974464;28;20494;-72
2024/01/28 07:02:12;;;;;;;64.57;16.10;;;;;;;-144.74;100.00;63161.41;4957275;28;20019;-72
2024/01/28 07:04:38;;;;;;;64.55;17.20;;;;;;;-144.74;100.00;63161.41;4954560;28;20042;-72
2024/01/28 07:07:03;;;;;;;65.57;18.20;;;;;;;-144.74;100.00;63161.41;4954737;28;20078;-73
2024/01/28 07:09:29;;;;;;;76.45;19.05;;;;;;;-144.74;100.00;63161.41;4951963;28;20038;-71
2024/01/28 07:11:55;;;;;;;82.22;18.85;;;;;;;-144.74;100.00;63161.41;4959897;28;20101;-72
2024/01/28 07:14:22;;;;;;;60.43;17.30;;;;;;;-144.74;100.00;63161.41;4972424;28;20030;-72
2024/01/28 07:16:47;;;;;;;57.73;17.23;;;;;;;-144.74;100.00;63161.41;4960857;28;20027;-72
2024/01/28 07:19:13;;;;;;;55.27;16.83;;;;;;;-144.74;100.00;63161.41;4980994;28;20117;-73
2024/01/28 07:21:38;;;;;;;60.50;17.93;;;;;;;-144.74;100.00;63161.41;4977525;28;20038;-72
2024/01/28 07:24:03;;;;;;;61.40;16.43;;;;;;;-144.74;100.00;63161.41;4957790;28;20027;-72
2024/01/28 07:26:29;;;;;;;51.20;16.20;;;;;;;-144.74;100.00;63161.41;4956630;28;20091;-72
2024/01/28 07:28:54;;;;;;;69.45;16.73;;;;;;;-144.74;100.00;63161.41;4957138;28;20018;-73
2024/01/28 07:31:20;;;;;;;64.07;15.80;;;;;;;-144.74;100.00;63161.41;4971580;28;20113;-72
2024/01/28 07:33:45;;;;;;;57.50;15.25;;;;;;;-144.74;100.00;63161.41;4959678;28;20379;-72
2024/01/28 07:36:11;;;;;;;50.17;13.75;;;;;;;-144.74;100.00;63161.41;4956504;28;20039;-73
2024/01/28 07:38:36;;;;;;;55.45;14.15;;;;;;;-144.74;100.00;63161.41;4954327;28;20054;-72
2024/01/28 07:41:02;;;;;;;55.80;12.63;;;;;;;-144.74;100.00;63161.41;4956681;28;20038;-72
2024/01/28 07:43:28;;;;;;;47.75;12.82;;;;;;;-144.74;100.00;63161.41;4974791;28;20031;-72
2024/01/28 07:45:53;;;;;;;51.50;14.10;;;;;;;-144.74;100.00;63161.41;4955244;28;20039;-72
2024/01/28 07:48:19;;;;;;;50.85;14.02;;;;;;;-144.74;100.00;63161.41;4954461;28;20110;-72
2024/01/28 07:50:44;;;;;;;46.38;13.25;;;;;;;-144.74;100.00;63161.41;4955674;28;20126;-73
2024/01/28 07:53:09;;;;;;;47.75;12.80;;;;;;;-144.74;100.00;63161.41;4956536;28;20034;-72
2024/01/28 07:55:35;;;;;;;40.53;13.15;;;;;;;-144.74;100.00;63161.41;4956356;28;20043;-72
2024/01/28 07:58:00;;;;;;;59.70;12.05;;;;;;;-144.74;100.00;63161.41;4963508;28;20026;-73
2024/01/28 08:00:27;;;;;;;51.38;14.35;;;;;;;-144.74;100.00;63161.41;4974732;28;20038;-71
2024/01/28 08:02:53;;;;;;;48.55;12.85;;;;;;;-144.74;100.00;63161.41;4962303;28;20030;-72
2024/01/28 08:05:18;;;;;;;46.95;11.25;;;;;;;-144.74;100.00;63161.41;4958639;28;20034;-71
2024/01/28 08:07:44;;;;;;;37.28;10.45;;;;;;;-144.74;100.00;63161.41;4951031;28;20030;-71
2024/01/28 08:10:09;;;;;;;41.78;10.52;;;;;;;-144.74;100.00;63161.41;4950868;28;20032;-71
2024/01/28 08:12:35;;;;;;;44.85;11.93;;;;;;;-144.74;100.00;63161.41;4956565;28;20034;-71
2024/01/28 08:15:00;;;;;;;43.13;13.13;;;;;;;-144.74;100.00;63161.41;4950555;28;20051;-72
2024/01/28 08:17:26;;;;;;;52.72;12.98;;;;;;;-144.74;100.00;63161.41;4959329;28;20312;-72
2024/01/28 08:19:51;;;;;;;47.78;10.77;;;;;;;-144.74;100.00;63161.41;4956510;28;20030;-72
2024/01/28 08:22:17;;;;;;;41.65;11.88;;;;;;;-144.74;100.00;63161.41;4955962;28;20107;-71
2024/01/28 08:24:42;;;;;;;39.33;11.50;;;;;;;-144.74;100.00;63161.41;4954675;28;20118;-72
2024/01/28 08:27:08;;;;;;;42.80;12.10;;;;;;;-144.74;100.00;63161.41;4955032;28;20026;-71
2024/01/28 08:29:33;;;;;;;47.55;10.70;;;;;;;-144.74;100.00;63161.41;4968055;28;20106;-71
2024/01/28 08:32:02;;;;;;;40.55;9.45;;;;;;;-144.74;100.00;63161.41;4955942;28;20027;-73
2024/01/28 08:34:28;;;;;;;38.05;8.52;;;;;;;-144.74;100.00;63161.41;4956182;28;20381;-72
2024/01/28 08:36:53;;;;;;;41.90;9.45;;;;;;;-144.74;100.00;63161.41;4955538;28;20035;-72
2024/01/28 08:39:19;;;;;;;37.85;8.00;;;;;;;-144.74;100.00;63161.41;4956522;28;20045;-71
2024/01/28 08:41:44;;;;;;;27.77;8.52;;;;;;;-144.74;100.00;63161.41;4955908;28;20031;-71
2024/01/28 08:44:10;;;;;;;48.00;8.38;;;;;;;-144.74;100.00;63161.41;4956155;28;20114;-71
2024/01/28 08:46:39;;;;;;;32.28;7.82;;;;;;;-144.74;100.00;63161.41;4953891;28;20055;-72
2024/01/28 08:49:05;;;;;;;45.40;7.97;;;;;;;-144.74;100.00;63161.41;4970560;28;20061;-71
2024/01/28 08:51:30;;;;;;;34.78;8.13;;;;;;;-144.74;100.00;63161.41;4952269;28;20063;-71
2024/01/28 08:53:55;;;;;;;33.58;7.45;;;;;;;-144.74;100.00;63161.41;4956375;28;20061;-71
2024/01/28 08:56:21;;;;;;;25.05;8.10;;;;;;;-144.74;100.00;63161.41;4972237;28;20066;-71
2024/01/28 08:58:46;;;;;;;42.40;8.43;;;;;;;-144.74;100.00;63161.41;4956719;28;20151;-71
2024/01/28 09:01:13;;;;;;;32.75;6.70;;;;;;;-144.74;100.00;63161.41;4949327;28;20035;-69
2024/01/28 09:03:39;;;;;;;31.85;6.95;;;;;;;-144.74;100.00;63161.41;4954654;28;20553;-68
2024/01/28 09:06:06;;;;;;;38.33;6.75;;;;;;;-144.74;100.00;63161.41;4961564;28;20118;-67
2024/01/28 09:08:31;;;;;;;28.98;6.82;;;;;;;-144.74;100.00;63161.41;4962426;28;20034;-70
2024/01/28 09:10:57;;;;;;;31.50;7.38;;;;;;;-144.74;100.00;63161.41;4965605;28;20117;-67
2024/01/28 09:13:26;;;;;;;34.72;7.10;;;;;;;-144.74;100.00;63161.41;4960895;28;20042;-68
2024/01/28 09:15:51;;;;;;;22.25;5.55;;;;;;;-144.74;100.00;63161.41;4953472;28;20061;-67
2024/01/28 09:18:17;;;;;;;31.63;6.70;;;;;;;-144.74;100.00;63161.41;4955966;28;20054;-68
2024/01/28 09:20:42;;;;;;;24.63;5.50;;;;;;;-144.74;100.00;63161.41;4969544;28;20094;-68
2024/01/28 09:23:07;;;;;;;38.90;7.15;;;;;;;-144.74;100.00;63161.41;4972979;28;20118;-69
2024/01/28 09:25:33;;;;;;;24.88;6.28;;;;;;;-144.74;100.00;63161.41;4961046;28;20030;-68
2024/01/28 09:27:59;;;;;;;33.88;6.32;;;;;;;-144.74;100.00;63161.41;4961383;28;20030;-68
2024/01/28 09:30:25;;;;;;;24.33;6.20;;;;;;;-144.74;100.00;63161.41;4962109;28;20097;-68
2024/01/28 09:32:50;;;;;;;26.50;5.53;;;;;;;-144.74;100.00;63161.41;4961998;28;20038;-69
2024/01/28 09:35:16;;;;;;;23.83;5.68;;;;;;;-144.74;100.00;63161.41;4975006;28;20027;-70
2024/01/28 09:37:41;;;;;;;32.03;5.72;;;;;;;-144.74;100.00;63161.41;4969654;28;20088;-69
2024/01/28 09:40:07;;;;;;;27.60;6.03;;;;;;;-144.74;100.00;63161.41;4954543;28;20034;-69
2024/01/28 09:42:42;;;;;;;30.92;5.93;;;;;;;-144.74;100.00;63161.41;4969303;28;20386;-69
2024/01/28 09:45:08;;;;;;;27.35;5.35;;;;;;;-144.74;100.00;63161.41;4969246;28;20031;-69
2024/01/28 09:47:35;;;;;;;36.45;6.40;;;;;;;-144.74;100.00;63161.41;4955193;28;20026;-69
2024/01/28 09:50:03;;;;;;;27.25;6.55;;;;;;;-144.74;100.00;63161.41;4949448;28;20039;-69
2024/01/28 09:52:29;;;;;;;30.38;6.10;;;;;;;-144.74;100.00;63161.41;4955113;28;20034;-69
2024/01/28 09:54:54;;;;;;;27.95;6.03;;;;;;;-144.74;100.00;63161.41;4957057;28;20041;-69
2024/01/28 09:57:20;;;;;;;35.25;6.03;;;;;;;-144.74;100.00;63161.41;4955027;28;20105;-69
2024/01/28 09:59:46;;;;;;;28.13;5.53;;;;;;;-144.74;100.00;63161.41;4951646;28;20041;-69
2024/01/28 10:02:14;;;;;;;20.75;5.18;;;;;;;-144.74;100.00;63161.41;4951822;28;20027;-69
2024/01/28 10:04:40;;;;;;;19.95;5.03;;;;;;;-144.74;100.00;63161.41;4952249;28;20097;-70
2024/01/28 10:07:09;;;;;;;30.80;5.35;;;;;;;-144.74;100.00;63161.41;4952626;28;20022;-69
2024/01/28 10:09:34;;;;;;;33.05;5.75;;;;;;;-144.74;100.00;63161.41;4969390;28;20047;-69
2024/01/28 10:12:00;;;;;;;29.42;5.70;;;;;;;-144.74;100.00;63161.41;4948980;28;20038;-69
2024/01/28 10:14:26;;;;;;;23.30;5.40;;;;;;;-144.74;100.00;63161.41;4952291;28;20087;-69
2024/01/28 10:16:52;;;;;;;29.33;5.47;;;;;;;-144.74;100.00;63161.41;4969448;28;20022;-69
2024/01/28 10:19:17;;;;;;;24.98;5.53;;;;;;;-144.74;100.00;63161.41;4973603;28;20081;-69
2024/01/28 10:21:43;;;;;;;29.67;5.05;;;;;;;-144.74;100.00;63161.41;4974335;28;20033;-69
2024/01/28 10:24:09;;;;;;;29.02;5.95;;;;;;;-144.74;100.00;63161.41;4954538;28;20069;-69
2024/01/28 10:26:35;;;;;;;19.63;4.32;;;;;;;-144.74;100.00;63161.41;4953528;28;20034;-68
2024/01/28 10:29:00;;;;;;;21.00;5.43;;;;;;;-144.74;100.00;63161.41;4958053;28;20077;-69
2024/01/28 10:31:26;;;;;;;29.65;5.65;;;;;;;-144.74;100.00;63161.41;4971116;28;20051;-69
2024/01/28 10:33:51;;;;;;;27.77;5.75;;;;;;;-144.74;100.00;63161.41;4953542;28;20042;-69
2024/01/28 10:36:17;;;;;;;24.42;4.93;;;;;;;-144.74;100.00;63161.41;4957255;28;20106;-69
2024/01/28 10:38:46;;;;;;;20.90;4.75;;;;;;;-144.74;100.00;63161.41;4957864;28;20026;-69
2024/01/28 10:41:18;;;;;;;21.92;5.28;;;;;;;-144.74;100.00;63161.41;4974594;28;20035;-68
2024/01/28 10:43:55;;;;;;;23.02;4.93;;;;;;;-144.74;100.00;63161.41;4957326;28;20030;-68
2024/01/28 10:46:38;;;;;;;23.92;4.55;;;;;;;-144.74;100.00;63161.41;4956878;28;20062;-68
2024/01/28 10:49:05;;;;;;;25.58;4.95;;;;;;;-144.74;100.00;63161.41;4957761;28;20041;-68